• Join FlightAware (Why Join?)
  • Login
  • US Flag 
05:04AM EDT


 

Airport Tracker/Info


-or-


 

Live Flight TrackerFlight Track Log ✈ SKW7423 ✈ 22-Aug-2013 ✈ KINL - KBRD

Flight Track Log - Related Links

Times and Time Zones

All times are in EDT time to prevent confusion due to time zone crossing. See the SKW7423 flight status page for this flight to view local times or setup timezone preferences in your user account.

Time Position Orientation Groundspeed Altitude Reporting Facility
EDT Latitude Longitude Course Direction KTS MPH feet Rate Location/Type
07:21AM 48.5503 -93.4611 192° South 201 231 3,900  Level Minneapolis Center
07:22AM 48.4886 -93.4814 192° South 220 253 7,500 3,240 Climbing Minneapolis Center
07:23AM 48.2010 -93.5300 189° South  Level Estimated
07:23AM 48.4047 -93.5081 192° South 240 276 11,100  Level Minneapolis Center
07:24AM 48.0794 -93.5722 188° South  Level Estimated
07:24AM 48.3292 -93.5264 189° South 259 298 13,900  Level Minneapolis Center
07:25AM 47.9578 -93.6142 195° South  Level Estimated
07:25AM 48.2483 -93.5489 191° South 276 318 16,100  Level Minneapolis Center
07:26AM 47.8362 -93.6560 192° South  Level Estimated
07:26AM 48.1431 -93.5769 190° South 302 348 18,600  Level Minneapolis Center
07:27AM 48.0528 -93.6008 190° South 317 365 20,700 1,680 Climbing Minneapolis Center
07:28AM 47.9594 -93.6247 190° South 329 379 22,000 540 Climbing Minneapolis Center
07:29AM 47.8594 -93.6500 190° South 353 406 21,900 -60 Descending Minneapolis Center
07:30AM 47.7708 -93.6728 190° South 334 384 21,900  Level Minneapolis Center
07:31AM 47.6819 -93.6953 190° South 326 375 22,000  Climbing Minneapolis Center
07:32AM 47.5908 -93.7197 190° South 332 382 22,000  Level Minneapolis Center
07:33AM 47.4994 -93.7417 189° South 335 386 22,000 -60 Level Minneapolis Center
07:34AM 47.4119 -93.7656 190° South 327 376 21,900 -60 Descending Minneapolis Center
07:35AM 47.3261 -93.7869 190° South 318 366 21,900 -960 Level Minneapolis Center
07:36AM 47.2206 -93.8136 190° South 322 371 20,000 -1,980 Descending Minneapolis Center
07:37AM 47.1289 -93.8367 190° South 328 377 17,900 -1,980 Descending Minneapolis Center
07:38AM 47.0392 -93.8592 190° South 330 380 16,000 -1,920 Descending Minneapolis Center
07:39AM 46.9517 -93.8803 189° South 327 376 14,100 -1,920 Descending Minneapolis Center
07:40AM 46.8678 -93.9008 190° South 319 367 12,200 -1,920 Descending Minneapolis Center
07:41AM 46.7864 -93.9208 190° South 309 356 10,300 -1,680 Descending Minneapolis Center
07:42AM 46.7058 -93.9392 189° South 301 346 8,900 -1,380 Descending Minneapolis Center
07:43AM 46.6306 -93.9583 190° South 290 334 7,600 -1,320 Descending Minneapolis Center
07:44AM 46.5592 -93.9839 194° South 278 320 6,300 -1,260 Descending Minneapolis Center
07:45AM 46.4922 -94.0175 199° South 267 307 5,100 -1,200 Descending Minneapolis Center
07:46AM 46.4200 -93.9997 170° South 245 282 3,900 -900 Descending Minneapolis Center
07:47AM 46.3692 -93.9867 170° South 212 244 3,300 -540 Descending Minneapolis Center
07:48AM 46.3453 -94.0478 240° Southwest 183 211 2,900 -600 Descending Minneapolis Center
07:49AM 46.3594 -94.1053 290° West 180 207 2,100 -600 Descending Minneapolis Center
07:50AM 46.3900 -94.1281 333° Northwest 163 188 1,800 -300 Descending Minneapolis Center